Time;durP1;ratioP1;P1;durP2;ratioP2;P2;SDS_P1;SDS_P2;PMS_P1;PMS_P2;Temp;Humidity;BMP_temperature;BMP_pressure;BME280_temperature;BME280_humidity;BME280_pressure;Samples;Min_cycle;Max_cycle;Signal;HPM_P1;HPM_P2
2020/12/21 00:03:02;;;;;;;;;;;6.20;99.90;;;;;;10050845;29;20062;-93
2020/12/21 00:08:04;;;;;;;16.45;5.97;;;6.30;99.90;;;;;;10049548;29;20339;-94
2020/12/21 00:13:06;;;;;;;16.00;6.65;;;6.00;99.90;;;;;;10018825;29;20053;-95
2020/12/21 00:18:07;;;;;;;16.83;6.15;;;6.20;99.90;;;;;;10034049;29;20077;-94
2020/12/21 00:23:09;;;;;;;13.73;5.32;;;6.20;99.90;;;;;;10018675;29;20525;-94
2020/12/21 00:28:10;;;;;;;17.73;6.28;;;6.40;99.90;;;;;;10033521;29;20511;-94
2020/12/21 00:33:12;;;;;;;13.77;6.25;;;5.70;99.90;;;;;;10064240;29;20064;-94
2020/12/21 00:38:13;;;;;;;16.38;6.25;;;6.30;99.90;;;;;;10048464;29;20069;-93
2020/12/21 00:43:15;;;;;;;19.40;6.43;;;6.50;99.90;;;;;;10048881;29;20061;-94
2020/12/21 00:48:17;;;;;;;17.38;6.50;;;6.10;99.90;;;;;;10032664;29;20502;-93
2020/12/21 00:53:19;;;;;;;12.35;6.00;;;5.80;99.90;;;;;;10047837;29;20053;-93
2020/12/21 00:58:21;;;;;;;17.95;6.15;;;;;;;;;;10047384;29;20061;-93
2020/12/21 01:03:23;;;;;;;15.98;6.15;;;;;;;;;;10047332;29;20065;-93
2020/12/21 01:08:25;;;;;;;14.27;6.13;;;;;;;;;;10047136;29;20065;-93
2020/12/21 01:13:27;;;;;;;17.55;6.57;;;;;;;;;;10048694;29;20054;-94
2020/12/21 01:18:29;;;;;;;26.38;5.93;;;;;;;;;;10063331;29;20060;-94
2020/12/21 01:23:31;;;;;;;19.55;6.57;;;;;;;;;;10054910;29;20057;-92
2020/12/21 01:28:33;;;;;;;22.27;6.97;;;;;;;;;;10069533;29;20057;-94
2020/12/21 01:33:35;;;;;;;15.52;5.70;;;;;;;;;;10069378;29;20053;-94
2020/12/21 01:38:36;;;;;;;19.60;5.50;;;;;;;;;;10054131;29;20147;-94
2020/12/21 01:43:39;;;;;;;16.02;5.60;;;;;;;;;;10069993;29;20072;-94
2020/12/21 01:48:43;;;;;;;23.48;6.72;;;;;;;;;;10069070;29;20057;-94
2020/12/21 01:53:45;;;;;;;17.15;5.70;;;;;;;;;;10053735;29;20057;-94
2020/12/21 01:58:48;;;;;;;20.70;6.35;;;;;;;;;;10054214;29;20064;-94
2020/12/21 02:03:50;;;;;;;18.70;5.80;;;;;;;;;;10068625;29;20064;-94
2020/12/21 02:08:52;;;;;;;15.95;6.35;;;;;;;;;;10068212;29;20117;-94
2020/12/21 02:19:25;;;;;;;16.65;6.30;;;;;;;;;;9946351;29;20051;-93
2020/12/21 02:24:26;;;;;;;19.25;5.43;;;;;;;;;;9932889;29;20088;-92
2020/12/21 02:29:28;;;;;;;19.38;5.45;;;;;;;;;;9931627;29;20142;-93
2020/12/21 02:34:30;;;;;;;18.90;5.45;;;;;;;;;;9931060;29;20142;-93
2020/12/21 02:39:32;;;;;;;13.15;5.18;;;;;;;;;;9931922;29;20142;-93
2020/12/21 02:44:34;;;;;;;13.95;5.10;;;;;;;;;;9932868;29;20063;-93
2020/12/21 02:49:36;;;;;;;11.07;4.57;;;;;;;;;;9931188;29;20093;-94
2020/12/21 02:54:39;;;;;;;11.27;5.07;;;;;;;;;;9962803;29;20123;-93
2020/12/21 02:59:42;;;;;;;17.65;5.30;;;;;;;;;;9942581;29;20064;-93
2020/12/21 03:04:44;;;;;;;16.65;5.05;;;;;;;;;;9946052;29;20070;-92
2020/12/21 03:09:48;;;;;;;17.85;5.30;;;;;;;;;;9960675;29;20069;-93
2020/12/21 03:14:50;;;;;;;20.00;5.03;;;;;;;;;;9948742;29;20587;-93
2020/12/21 03:19:52;;;;;;;13.82;5.45;;;;;;;;;;9997812;29;20489;-92
2020/12/21 03:24:54;;;;;;;22.95;7.32;;;;;;;;;;9998479;29;20118;-93
2020/12/21 03:29:56;;;;;;;16.58;6.22;;;;;;;;;;10012307;29;20168;-93
2020/12/21 03:34:58;;;;;;;16.08;5.10;;;;;;;;;;10012815;29;20092;-93
2020/12/21 03:40:04;;;;;;;12.35;4.22;;;;;;;;;;10013370;29;20081;-93
2020/12/21 03:45:06;;;;;;;17.50;5.78;;;;;;;;;;10012177;29;20054;-93
2020/12/21 03:50:08;;;;;;;10.77;5.15;;;;;;;;;;9997308;29;20089;-92
2020/12/21 03:55:10;;;;;;;19.20;5.28;;;;;;;;;;9996703;29;20054;-93
2020/12/21 04:00:12;;;;;;;13.98;4.90;;;;;;;;;;9997083;29;20061;-93
2020/12/21 04:05:14;;;;;;;12.38;5.25;;;;;;;;;;9974023;29;20070;-93
2020/12/21 04:10:16;;;;;;;15.88;5.03;;;;;;;;;;9973405;29;20356;-92
2020/12/21 04:15:19;;;;;;;16.33;4.53;;;;;;;;;;9973753;29;20054;-93
2020/12/21 04:20:21;;;;;;;16.85;4.80;;;;;;;;;;9973408;29;20066;-93
2020/12/21 04:25:22;;;;;;;12.35;5.13;;;;;;;;;;9973453;29;20058;-93
2020/12/21 04:30:24;;;;;;;13.35;4.53;;;;;;;;;;9972891;29;20085;-93
2020/12/21 04:35:26;;;;;;;8.60;4.53;;;;;;;;;;9972236;29;20517;-92
2020/12/21 04:40:28;;;;;;;17.15;4.55;;;;;;;;;;9973875;29;20070;-93
2020/12/21 04:45:30;;;;;;;17.92;5.28;;;;;;;;;;9972345;29;20074;-93
2020/12/21 04:50:32;;;;;;;14.38;4.07;;;;;;;;;;9972766;29;20123;-93
2020/12/21 04:55:35;;;;;;;17.20;5.20;;;;;;;;;;9972886;29;20084;-93
2020/12/21 05:00:37;;;;;;;13.13;4.72;;;;;;;;;;9971980;29;20062;-93
2020/12/21 05:05:43;;;;;;;12.05;4.45;;;;;;;;;;9971794;29;20057;-93
2020/12/21 05:10:59;;;;;;;11.93;4.85;;;;;;;;;;9971686;29;20066;-93
2020/12/21 05:16:02;;;;;;;12.07;4.13;;;;;;;;;;9971041;29;20069;-92
2020/12/21 05:21:06;;;;;;;21.25;6.35;;;;;;;;;;9970505;29;20630;-93
2020/12/21 05:26:10;;;;;;;12.07;4.70;;;;;;;;;;9971638;29;20133;-93
2020/12/21 05:31:12;;;;;;;13.23;4.05;;;;;;;;;;9971137;29;20082;-93
2020/12/21 05:36:21;;;;;;;12.73;4.38;;;;;;;;;;9970810;29;20487;-93
2020/12/21 05:41:24;;;;;;;18.10;5.35;;;;;;;;;;9970645;29;20142;-93
2020/12/21 05:46:26;;;;;;;11.82;4.40;;;;;;;;;;9970550;29;20084;-93
2020/12/21 05:51:32;;;;;;;11.43;3.70;;;;;;;;;;9970967;29;20059;-94
2020/12/21 05:56:36;;;;;;;11.43;4.13;;;;;;;;;;9970191;29;20058;-93
2020/12/21 06:01:37;;;;;;;12.35;3.72;;;;;;;;;;9970068;29;20144;-94
2020/12/21 06:06:43;;;;;;;11.52;4.28;;;;;;;;;;9970244;29;20086;-93
2020/12/21 06:11:45;;;;;;;10.50;4.30;;;;;;;;;;9969813;29;20486;-93
2020/12/21 06:16:48;;;;;;;8.95;3.65;;;;;;;;;;9969397;29;20395;-94
2020/12/21 06:21:54;;;;;;;15.85;5.18;;;;;;;;;;9969577;29;20059;-93
2020/12/21 06:26:56;;;;;;;16.23;4.93;;;;;;;;;;9971274;29;20055;-93
2020/12/21 06:32:04;;;;;;;17.33;4.60;;;;;;;;;;9970066;29;20065;-94
2020/12/21 06:37:16;;;;;;;20.20;4.53;;;;;;;;;;9969318;29;20142;-92
2020/12/21 06:42:25;;;;;;;14.13;4.78;;;;;;;;;;9969498;29;20090;-93
2020/12/21 06:47:28;;;;;;;11.80;4.80;;;;;;;;;;10003045;29;20062;-93
2020/12/21 06:52:30;;;;;;;9.90;4.65;;;;;;;;;;9992797;29;20103;-93
2020/12/21 06:57:32;;;;;;;15.82;5.05;;;;;;;;;;10006515;29;20074;-94
2020/12/21 07:02:34;;;;;;;16.45;5.25;;;;;;;;;;9992826;29;20065;-93
2020/12/21 07:07:36;;;;;;;14.40;5.40;;;;;;;;;;10006200;29;20092;-93
2020/12/21 07:12:40;;;;;;;16.23;5.82;;;;;;;;;;9991768;29;20068;-93
2020/12/21 07:17:42;;;;;;;18.58;5.38;;;;;;;;;;10004912;29;20480;-92
2020/12/21 07:22:44;;;;;;;15.60;5.78;;;;;;;;;;10006012;29;20506;-93
2020/12/21 07:27:48;;;;;;;16.60;5.45;;;;;;;;;;9991146;29;20062;-93
2020/12/21 07:32:50;;;;;;;10.88;4.78;;;;;;;;;;9990597;29;20062;-93
2020/12/21 07:37:53;;;;;;;18.95;5.80;;;;;;;;;;10005289;29;20483;-93
2020/12/21 07:42:59;;;;;;;12.23;4.75;;;;;;;;;;10006320;29;20118;-93
2020/12/21 07:48:02;;;;;;;14.40;4.93;;;;;;;;;;10012234;29;20062;-93
2020/12/21 07:53:05;;;;;;;12.30;4.57;;;;;;;;;;9997301;29;20070;-93
2020/12/21 07:58:16;;;;;;;14.07;4.53;;;;;;;;;;10011752;29;20066;-93
2020/12/21 08:03:20;;;;;;;13.40;4.07;;;;;;;;;;9998019;29;20138;-92
2020/12/21 08:08:26;;;;;;;13.48;4.35;;;;;;;;;;10012638;29;20477;-92
2020/12/21 08:13:29;;;;;;;18.63;4.88;;;;;;;;;;10011254;29;20082;-92
2020/12/21 08:18:31;;;;;;;13.07;4.45;;;;;;;;;;10008366;29;20490;-92
2020/12/21 08:23:33;;;;;;;13.10;4.53;;;;;;;;;;9996450;29;20058;-93
2020/12/21 08:28:38;;;;;;;17.38;5.55;;;;;;;;;;10010592;29;20145;-93
2020/12/21 08:33:59;;;;;;;10.77;3.78;;;;;;;;;;10010191;29;20145;-92
2020/12/21 08:39:15;;;;;;;10.40;3.95;;;;;;;;;;10025778;29;20526;-93
2020/12/21 08:44:26;;;;;;;8.23;3.33;;;;;;;;;;10010170;29;20137;-93
2020/12/21 08:49:28;;;;;;;13.70;4.65;;;;;;;;;;10010571;29;20485;-93
2020/12/21 08:54:31;;;;;;;11.82;3.70;;;;;;;;;;10009753;29;20473;-93
2020/12/21 08:59:33;;;;;;;10.18;3.63;;;;;;;;;;10008664;29;20094;-93
2020/12/21 09:04:34;;;;;;;12.88;4.30;;;;;;;;;;9994709;29;20053;-93
2020/12/21 09:09:36;;;;;;;11.35;3.50;;;;;;;;;;10009143;29;20152;-92
2020/12/21 09:14:40;;;;;;;8.65;2.90;;;;;;;;;;9996151;29;20491;-94
2020/12/21 09:19:41;;;;;;;9.38;3.00;;;;;;;;;;9993286;29;20417;-92
2020/12/21 09:24:43;;;;;;;7.53;2.83;;;;;;;;;;9993830;29;20073;-92
2020/12/21 09:29:45;;;;;;;9.50;3.42;;;;;;;;;;9993682;29;20069;-92
2020/12/21 09:34:48;;;;;;;11.00;3.25;;;;;;;;;;9993160;29;20061;-93
2020/12/21 09:39:53;;;;;;;17.10;3.63;;;;;;;;;;9993434;29;20069;-92
2020/12/21 09:44:55;;;;;;;11.07;2.95;;;;;;;;;;9994275;29;20068;-93
2020/12/21 09:49:57;;;;;;;10.65;3.45;;;;;;;;;;9993017;29;20077;-92
2020/12/21 09:55:03;;;;;;;8.18;3.38;;;;;;;;;;9993682;29;20054;-92
2020/12/21 10:00:05;;;;;;;8.82;3.35;;;;;;;;;;10006241;29;20118;-93
2020/12/21 10:05:07;;;;;;;9.65;4.22;;;;;;;;;;9969780;29;20460;-93
2020/12/21 10:10:09;;;;;;;11.65;5.40;;;;;;;;;;9954621;29;20066;-92
2020/12/21 10:15:11;;;;;;;9.13;2.90;;;;;;;;;;9954675;29;20422;-92
2020/12/21 10:20:14;;;;;;;9.38;3.88;;;;;;;;;;9969043;29;20081;-92
2020/12/21 10:25:17;;;;;;;12.65;3.60;;;;;;;;;;9969591;29;20479;-93
2020/12/21 10:35:48;;;;;;;10.68;3.55;;;;;;;;;;10058352;29;20050;-93
2020/12/21 10:40:50;;;;;;;13.32;4.90;;;;;;;;;;10014509;29;20145;-92
2020/12/21 10:45:52;;;;;;;16.17;6.15;;;;;;;;;;10015213;29;20137;-92
2020/12/21 10:50:55;;;;;;;14.52;4.65;;;;;;;;;;10013582;29;20141;-92
2020/12/21 10:55:56;;;;;;;10.68;3.70;;;;;;;;;;10028789;29;20499;-92
2020/12/21 11:00:58;;;;;;;9.52;4.88;;;;;;;;;;10028634;29;20165;-92
2020/12/21 11:06:00;;;;;;;14.68;5.38;;;;;;;;;;10029091;29;20148;-92
2020/12/21 11:11:05;;;;;;;11.93;4.50;;;;;;;;;;10044359;29;20061;-91
2020/12/21 11:16:09;;;;;;;13.00;5.70;;;;;;;;;;10028435;29;20060;-92
2020/12/21 11:21:11;;;;;;;10.75;4.93;;;;;;;;;;10000979;29;20510;-92
2020/12/21 11:26:31;;;;;;;25.55;9.90;;;;;;;;;;10002868;29;20117;-91
2020/12/21 11:31:33;;;;;;;;;;;;;;;;;;9982814;29;20536;-92
2020/12/21 11:36:35;;;;;;;15.45;5.43;;;;;;;;;;9997233;29;20380;-92
2020/12/21 11:41:37;;;;;;;18.23;7.10;;;;;;;;;;9982753;29;20149;-93
2020/12/21 11:46:40;;;;;;;19.27;8.82;;;;;;;;;;9996835;29;20513;-92
2020/12/21 11:51:42;;;;;;;11.98;7.70;;;;;;;;;;9997322;29;20092;-91
2020/12/21 11:56:44;;;;;;;11.13;4.55;;;;;;;;;;9981654;29;20085;-93
2020/12/21 12:01:46;;;;;;;19.65;5.70;;;;;;;;;;9982201;29;20494;-94
2020/12/21 12:06:48;;;;;;;12.52;5.50;;;;;;;;;;9997119;29;20068;-92
2020/12/21 12:11:51;;;;;;;13.57;5.05;;;;;;;;;;10049450;29;20087;-91
2020/12/21 12:16:55;;;;;;;8.95;5.18;;;;;;;;;;10034986;29;20858;-91
2020/12/21 12:21:57;;;;;;;16.35;6.53;;;;;;;;;;10034080;29;20065;-92
2020/12/21 12:26:59;;;;;;;13.48;4.70;;;;;;;;;;10017962;29;20413;-91
2020/12/21 12:32:01;;;;;;;11.05;5.40;;;;;;;;;;10017718;29;20130;-93
2020/12/21 12:37:04;;;;;;;13.80;5.15;;;;;;;;;;10048686;29;20058;-92
2020/12/21 12:42:06;;;;;;;17.85;6.43;;;;;;;;;;10048486;29;20089;-92
2020/12/21 12:47:08;;;;;;;19.02;7.05;;;;;;;;;;10047664;29;20081;-92
2020/12/21 12:52:09;;;;;;;14.40;5.82;;;;;;;;;;10047413;29;20148;-92
2020/12/21 12:57:12;;;;;;;15.23;6.90;;;;;;;;;;10032504;29;20057;-92
2020/12/21 13:02:16;;;;;;;16.73;7.18;;;;;;;;;;10047951;29;20467;-93
2020/12/21 13:07:18;;;;;;;19.20;6.53;;;;;;;;;;10047563;29;20058;-92
2020/12/21 13:12:20;;;;;;;12.50;7.05;;;;;;;;;;10048008;29;20057;-92
2020/12/21 13:17:22;;;;;;;;;;;;;;;;;;10032808;29;20069;-92
2020/12/21 13:22:25;;;;;;;13.90;5.88;;;;;;;;;;10032156;29;19923;-92
2020/12/21 13:27:27;;;;;;;12.98;5.85;;;;;;;;;;10046536;29;20081;-92
2020/12/21 13:32:29;;;;;;;10.60;5.82;;;;;;;;;;10046149;29;20476;-92
2020/12/21 13:37:31;;;;;;;11.57;6.15;;;;;;;;;;10061264;29;20065;-93
2020/12/21 13:42:33;;;;;;;9.32;5.55;;;;;;;;;;10045677;29;20061;-94
2020/12/21 13:47:35;;;;;;;14.82;5.55;;;;;;;;;;10046167;29;20141;-93
2020/12/21 13:52:37;;;;;;;11.07;5.72;;;;;;;;;;10031963;29;20092;-93
2020/12/21 13:57:40;;;;;;;7.95;4.65;;;;;;;;;;10030506;29;20061;-93
2020/12/21 14:02:42;;;;;;;10.80;4.82;;;;;;;;;;10030786;29;20160;-94
2020/12/21 14:07:44;;;;;;;10.82;4.95;;;;;;;;;;10045819;29;20133;-93
2020/12/21 14:12:46;;;;;;;13.85;5.00;;;;;;;;;;10045840;29;20140;-93
2020/12/21 14:17:48;;;;;;;10.50;5.53;;;;;;;;;;10029688;29;20068;-93
2020/12/21 14:22:50;;;;;;;9.27;5.00;;;;;;;;;;10030507;29;20117;-93
2020/12/21 14:27:53;;;;;;;10.70;5.18;;;;;;;;;;10031279;29;20061;-93
2020/12/21 14:32:55;;;;;;;11.07;5.43;;;;;;;;;;10044422;29;20067;-92
2020/12/21 14:37:57;;;;;;;12.02;5.75;;;;;;;;;;10044415;29;20132;-92
2020/12/21 14:42:59;;;;;;;11.27;4.40;;;;;;;;;;10045787;29;20075;-93
2020/12/21 14:48:02;;;;;;;9.43;4.93;;;;;;;;;;10044512;29;20088;-92
2020/12/21 14:53:04;;;;;;;9.90;5.95;;;;;;;;;;10030787;29;20066;-92
2020/12/21 14:58:06;;;;;;;9.18;4.93;;;;;;;;;;10036302;29;20058;-93
2020/12/21 15:03:08;;;;;;;8.48;5.00;;;;;;;;;;10036566;29;20064;-92
2020/12/21 15:08:11;;;;;;;7.57;4.60;;;;;;;;;;10037658;29;20109;-93
2020/12/21 15:13:13;;;;;;;5.63;4.70;;;;;;;;;;10051752;29;20501;-93
2020/12/21 15:18:15;;;;;;;8.60;5.55;;;;;;;;;;10050583;29;20109;-93
2020/12/21 15:23:17;;;;;;;7.28;4.82;;;;;;;;;;10035868;29;20089;-92
2020/12/21 15:28:19;;;;;;;6.65;4.72;;;;;;;;;;10051149;29;20069;-93
2020/12/21 15:33:22;;;;;;;8.18;4.90;;;;;;;;;;10035441;29;20092;-93
2020/12/21 15:38:24;;;;;;;11.13;5.53;;;;;;;;;;10036408;29;20057;-92
2020/12/21 15:43:25;;;;;;;8.18;4.72;;;;;;;;;;10032448;29;20137;-92
2020/12/21 15:48:27;;;;;;;7.05;5.40;;;;;;;;;;10045763;29;20144;-93
2020/12/21 15:53:29;;;;;;;7.57;5.35;;;;;;;;;;10034776;29;20088;-93
2020/12/21 15:58:31;;;;;;;5.38;4.88;;;;;;;;;;10054961;29;20053;-92
2020/12/21 16:03:33;;;;;;;8.20;4.85;;;;;;;;;;10073138;29;20053;-92
2020/12/21 16:08:35;;;;;;;12.77;6.13;;;;;;;;;;10038540;29;20065;-92
2020/12/21 16:13:37;;;;;;;8.30;7.30;;;;;;;;;;10034213;29;20069;-92
2020/12/21 16:18:40;;;;;;;9.80;7.35;;;;;;;;;;10033905;29;20509;-90
2020/12/21 16:23:42;;;;;;;7.50;6.57;;;;;;;;;;10048597;29;20057;-93
2020/12/21 16:28:44;;;;;;;9.50;6.47;;;;;;;;;;10049040;29;20055;-93
2020/12/21 16:33:47;;;;;;;7.97;6.25;;;;;;;;;;10048372;29;20105;-93
2020/12/21 16:38:49;;;;;;;9.55;7.30;;;;;;;;;;10018082;29;20058;-95
2020/12/21 16:43:52;;;;;;;8.93;8.02;;;;;;;;;;10033222;29;20090;-94
2020/12/21 16:48:55;;;;;;;8.93;7.78;;;;;;;;;;10033254;29;20093;-95
2020/12/21 16:53:56;;;;;;;9.95;7.93;;;;;;;;;;10033010;29;20069;-95
2020/12/21 16:58:58;;;;;;;8.52;7.75;;;;;;;;;;10032780;29;20089;-93
2020/12/21 17:04:00;;;;;;;9.80;8.50;;;;;;;;;;10033942;29;20122;-94
2020/12/21 17:09:03;;;;;;;11.05;9.73;;;;;;;;;;10031795;29;20148;-91
2020/12/21 17:14:05;;;;;;;9.45;8.55;;;;;;;;;;10032176;29;20061;-93
2020/12/21 17:19:08;;;;;;;11.77;9.68;;;;;;;;;;10031005;29;20570;-92
2020/12/21 17:24:14;;;;;;;12.60;8.90;;;;;;;;;;10018170;29;20061;-93
2020/12/21 17:29:17;;;;;;;9.10;8.00;;;;;;;;;;10032491;29;20061;-92
2020/12/21 17:34:19;;;;;;;9.00;8.13;;;;;;;;;;10015764;29;20054;-92
2020/12/21 17:39:21;;;;;;;8.50;7.72;;;;;;;;;;10046571;29;20105;-92
2020/12/21 17:44:23;;;;;;;7.32;6.63;;;;;;;;;;10024792;24;20062;-92
2020/12/21 17:49:25;;;;;;;7.32;6.72;;;;;;;;;;9955725;29;20065;-91
2020/12/21 17:54:27;;;;;;;7.18;6.53;;;;;;;;;;9942067;29;20087;-91
2020/12/21 17:59:30;;;;;;;7.82;7.13;;;;;;;;;;9932178;29;20145;-92
2020/12/21 18:04:35;;;;;;;10.05;8.40;;;;;;;;;;9962169;29;20516;-92
2020/12/21 18:09:37;;;;;;;6.53;6.03;;;;;;;;;;9962390;29;20071;-92
2020/12/21 18:14:39;;;;;;;5.95;5.45;;;;;;;;;;9935945;29;20054;-92
2020/12/21 18:19:41;;;;;;;5.95;5.35;;;;;;;;;;9969474;29;20092;-90
2020/12/21 18:24:43;;;;;;;7.57;7.00;;;;;;;;;;9983852;29;20085;-91
2020/12/21 18:29:45;;;;;;;6.93;6.32;;;;;;;;;;9968785;29;20068;-91
2020/12/21 18:34:47;;;;;;;6.63;6.15;;;;;;;;;;9968681;29;20495;-91
2020/12/21 18:39:49;;;;;;;6.10;5.50;;;;;;;;;;9936127;29;20571;-91
2020/12/21 18:44:51;;;;;;;5.32;4.97;;;;;;;;;;9946373;29;20138;-90
2020/12/21 18:49:53;;;;;;;8.52;7.72;;;;;;;;;;9961044;29;20137;-90
2020/12/21 18:54:55;;;;;;;7.70;7.10;;;;;;;;;;9961506;29;20065;-91
2020/12/21 18:59:58;;;;;;;8.02;7.25;;;;;;;;;;9949975;29;20058;-91
2020/12/21 19:04:59;;;;;;;7.53;6.82;;;;;;;;;;9968393;29;20495;-90
2020/12/21 19:10:02;;;;;;;7.32;6.72;;;;;;;;;;9982424;29;20066;-90
2020/12/21 19:15:04;;;;;;;7.18;6.57;;;;;;;;;;9966836;29;20526;-91
2020/12/21 19:20:06;;;;;;;12.20;11.00;;;8.80;99.90;;;;;;9967994;29;20054;-91
2020/12/21 19:25:10;;;;;;;10.13;9.13;;;9.20;99.90;;;;;;9953265;29;20566;-90
2020/12/21 19:30:12;;;;;;;10.52;9.57;;;9.30;99.90;;;;;;9951744;29;20077;-91
2020/12/21 19:35:13;;;;;;;;;;;9.30;99.90;;;;;;9982800;29;20551;-91
2020/12/21 19:40:15;;;;;;;12.32;11.13;;;9.00;99.90;;;;;;9969150;29;19977;-91
2020/12/21 19:45:18;;;;;;;12.75;11.48;;;9.30;99.90;;;;;;9957996;29;20066;-91
2020/12/21 19:50:20;;;;;;;11.80;10.70;;;9.70;99.90;;;;;;9959167;29;20138;-90
2020/12/21 19:55:22;;;;;;;13.45;12.18;;;9.10;99.90;;;;;;9943953;29;20548;-90
2020/12/21 20:00:23;;;;;;;;;;;9.10;99.90;;;;;;9959202;29;20062;-91
2020/12/21 20:05:25;;;;;;;13.30;12.05;;;9.30;99.90;;;;;;9958637;29;20028;-90
2020/12/21 20:10:26;;;;;;;14.48;13.10;;;9.50;99.90;;;;;;9943808;29;20088;-90
2020/12/21 20:15:28;;;;;;;14.30;12.90;;;9.70;99.90;;;;;;9944349;29;20433;-93
2020/12/21 20:20:29;;;;;;;13.57;12.18;;;9.80;99.90;;;;;;9957942;29;20485;-93
2020/12/21 20:25:31;;;;;;;12.85;11.73;;;10.00;99.90;;;;;;9959301;29;20510;-93
2020/12/21 20:30:32;;;;;;;11.48;10.48;;;9.70;99.90;;;;;;9943254;29;20158;-92
2020/12/21 20:35:34;;;;;;;12.50;11.30;;;9.60;99.90;;;;;;9943202;29;20084;-94
2020/12/21 20:40:51;;;;;;;10.80;9.90;;;9.60;99.90;;;;;;9936601;29;20411;-92
2020/12/21 20:45:52;;;;;;;12.40;11.02;;;9.90;99.90;;;;;;9942617;29;20090;-92
2020/12/21 20:50:54;;;;;;;9.73;8.73;;;9.70;99.90;;;;;;9957347;29;20069;-92
2020/12/21 20:55:56;;;;;;;9.90;9.13;;;9.90;99.90;;;;;;9957202;29;20065;-92
2020/12/21 21:00:57;;;;;;;;;;;10.00;99.90;;;;;;9988043;29;20093;-93
2020/12/21 21:06:00;;;;;;;11.15;10.10;;;9.90;99.90;;;;;;9986784;29;19968;-93
2020/12/21 21:11:01;;;;;;;13.95;12.40;;;10.20;99.90;;;;;;9971785;29;20066;-92
2020/12/21 21:16:05;;;;;;;17.42;15.50;;;10.10;99.90;;;;;;9972910;29;20467;-92
2020/12/21 21:21:06;;;;;;;15.55;14.00;;;10.00;99.90;;;;;;9956696;29;20086;-93
2020/12/21 21:26:18;;;;;;;20.35;18.17;;;10.60;99.90;;;;;;9941355;29;20154;-91
2020/12/21 21:31:19;;;;;;;22.35;17.98;;;10.20;99.90;;;;;;9941719;29;20494;-94
2020/12/21 21:36:21;;;;;;;22.67;18.33;;;10.60;99.90;;;;;;9956211;29;20114;-93
2020/12/21 21:41:23;;;;;;;25.00;22.38;;;10.60;99.90;;;;;;9956305;29;20068;-93
2020/12/21 21:46:25;;;;;;;;;;;;;;;;;;9955852;29;20077;-92
2020/12/21 21:51:26;;;;;;;26.65;21.73;;;;;;;;;;9955271;29;20292;-93
2020/12/21 21:56:28;;;;;;;21.95;19.40;;;;;;;;;;9939341;29;20141;-91
2020/12/21 22:01:41;;;;;;;21.85;19.55;;;;;;;;;;9940494;29;20080;-93
2020/12/21 22:06:43;;;;;;;20.45;18.25;;;;;;;;;;9954493;29;20064;-92
2020/12/21 22:11:45;;;;;;;16.40;14.82;;;;;;;;;;9947941;29;20430;-92
2020/12/21 22:16:47;;;;;;;20.10;17.00;;;;;;;;;;9980101;29;20141;-93
2020/12/21 22:21:49;;;;;;;18.30;16.40;;;;;;;;;;9940283;29;20491;-92
2020/12/21 22:26:51;;;;;;;17.88;16.10;;;;;;;;;;9968157;29;20141;-93
2020/12/21 22:31:53;;;;;;;19.48;17.65;;;;;;;;;;9954229;29;20073;-92
2020/12/21 22:36:55;;;;;;;19.75;17.77;;;;;;;;;;9953549;29;20058;-93
2020/12/21 22:41:57;;;;;;;21.92;19.65;;;;;;;;;;9954981;29;20085;-92
2020/12/21 22:46:59;;;;;;;17.88;16.08;;;;;;;;;;9952884;29;20133;-93
2020/12/21 22:52:00;;;;;;;23.08;18.63;;;;;;;;;;9953796;29;20066;-92
2020/12/21 22:57:02;;;;;;;16.27;14.82;;;;;;;;;;9953383;29;20133;-93
2020/12/21 23:02:05;;;;;;;21.40;19.13;;;;;;;;;;9950072;29;20098;-93
2020/12/21 23:07:07;;;;;;;18.88;17.08;;;;;;;;;;9916245;29;20137;-93
2020/12/21 23:12:09;;;;;;;20.05;17.70;;;;;;;;;;9947364;29;20066;-93
2020/12/21 23:17:11;;;;;;;20.55;17.88;;;;;;;;;;9972096;29;20474;-94
2020/12/21 23:22:12;;;;;;;18.25;16.30;;;;;;;;;;9961816;29;20070;-93
2020/12/21 23:27:14;;;;;;;19.15;17.33;;;;;;;;;;9976027;29;20077;-93
2020/12/21 23:32:17;;;;;;;17.58;15.98;;;;;;;;;;9974473;29;20077;-94
2020/12/21 23:37:19;;;;;;;21.30;19.08;;;;;;;;;;9974824;29;20137;-93
2020/12/21 23:42:21;;;;;;;18.25;16.70;;;;;;;;;;9983219;24;20150;-93
2020/12/21 23:47:23;;;;;;;24.52;22.20;;;;;;;;;;10049756;29;20067;-93
2020/12/21 23:52:25;;;;;;;20.33;18.42;;;;;;;;;;10020325;29;20132;-94
2020/12/21 23:57:27;;;;;;;21.27;19.20;;;;;;;;;;10034679;29;20064;-93
